EW7520 Scotch Plains NJ US current weather conditions

sailwx.info

Wind from 090 at 2 knots gusting 3

Air temperature 3.9° C
Dewpoint -2.1° C

Last reported at 2020-Jan-28 23:01 UTC.
Time now 2020-Jan-28 23:25 UTC

Location: N 40°39' W 074°22'.
View on Google Maps.

See reports from other nearby stations

  
Tides and Currents Weather Stations Pressure Air Temp Water Temp Dewpoint Dewpoint Depression Visibility Wind Speed Wind Dir Waves Ship Positions
date/time (UTC)wind fromknots sea level pressurealtimeterstation pressurevisibilityair tempwater tempwave heightnotes
2020-Jan-28 23:01 090 2 gusting 3 3.9
2020-Jan-28 22:51 090 4 gusting 6 3.9
2020-Jan-28 22:41 090 1 gusting 3 4.4
2020-Jan-28 22:31 158 1 gusting 3 4.4
2020-Jan-28 22:21 113 3 gusting 5 4.4
2020-Jan-28 22:11 135 5 gusting 11 4.4
2020-Jan-28 22:01 090 5 gusting 7 4.4
2020-Jan-28 21:51 090 0 gusting 2 4.4
2020-Jan-28 21:41 180 1 gusting 4 4.4
2020-Jan-28 21:31 135 1 gusting 4 4.4
2020-Jan-28 21:21 135 4 gusting 7 4.4
2020-Jan-28 21:11 113 3 gusting 5 4.4
2020-Jan-28 21:01 4.4
2020-Jan-28 20:51 113 4 gusting 8 4.4
2020-Jan-28 20:41 158 4 gusting 8 4.4
2020-Jan-28 20:31 135 1 gusting 2 4.4
2020-Jan-28 20:21 113 2 gusting 5 4.4
2020-Jan-28 20:11 180 2 gusting 3 4.4
2020-Jan-28 20:01 203 1 gusting 3 4.4
2020-Jan-28 19:51 113 2 gusting 6 4.4
2020-Jan-28 19:41 113 3 gusting 6 5.0
2020-Jan-28 19:31 113 5 gusting 7 5.0
2020-Jan-28 19:21 113 3 gusting 6 5.0
2020-Jan-28 19:11 158 3 gusting 6 5.0
2020-Jan-28 19:01 113 5 gusting 7 5.0
2020-Jan-28 18:51 135 5 gusting 8 5.6
2020-Jan-28 18:41 135 5 gusting 8 6.1
2020-Jan-28 18:31 090 6 gusting 10 6.1
2020-Jan-28 18:21 135 3 gusting 5 5.6
2020-Jan-28 18:11 113 3 gusting 5 6.1
2020-Jan-28 18:01 113 3 gusting 6 6.1
2020-Jan-28 17:51 113 2 gusting 3 6.1
2020-Jan-28 17:41 135 6 gusting 11 6.1
2020-Jan-28 17:31 180 2 gusting 3 6.7
2020-Jan-28 17:21 090 3 gusting 5 6.1
2020-Jan-28 17:11 135 1 gusting 2 6.1
2020-Jan-28 17:01 113 6 gusting 11 6.1
2020-Jan-28 16:51 135 1 gusting 4 6.1
2020-Jan-28 16:41 135 1 gusting 3 6.1
2020-Jan-28 16:31 158 1 gusting 4 6.1
2020-Jan-28 16:21 135 3 gusting 6 6.1
2020-Jan-28 16:11 135 2 gusting 6 6.1
2020-Jan-28 16:01 135 3 gusting 5 6.1
2020-Jan-28 15:51 135 0 gusting 2 5.6
2020-Jan-28 15:41 135 6 gusting 11 5.6
2020-Jan-28 15:31 158 2 gusting 4 5.0
2020-Jan-28 15:21 113 5 gusting 10 5.0
2020-Jan-28 15:11 113 2 gusting 5 4.4
2020-Jan-28 15:01 135 1 gusting 3 4.4
2020-Jan-28 14:51 135 3 gusting 6 3.9
2020-Jan-28 14:41 180 4 gusting 6 3.9
2020-Jan-28 14:31 090 3 gusting 6 3.3
2020-Jan-28 14:21 135 4 gusting 9 3.3
2020-Jan-28 14:11 113 5 gusting 8 3.3
2020-Jan-28 14:01 135 3 gusting 6 2.8
2020-Jan-28 13:51 113 2 gusting 5 2.8
2020-Jan-28 13:41 090 2 gusting 6 2.8
2020-Jan-28 13:31 113 2 gusting 4 2.2
2020-Jan-28 13:21 135 1 gusting 4 2.2
2020-Jan-28 13:11 090 1 gusting 2 2.2
2020-Jan-28 13:01 2.2
2020-Jan-28 12:51 090 1 gusting 2 2.2
2020-Jan-28 12:41 113 0 gusting 1 2.2
2020-Jan-28 12:31 2.2
2020-Jan-28 12:21 1.7
2020-Jan-28 12:11 1.7
2020-Jan-28 12:01 113 0 gusting 1 2.2
2020-Jan-28 11:51 090 0 gusting 2 2.2
2020-Jan-28 11:41 113 0 gusting 1 2.2
2020-Jan-28 11:31 2.2
2020-Jan-28 11:21 113 2 gusting 4 2.2
2020-Jan-28 11:11 090 3 gusting 6 2.2
2020-Jan-28 11:01 090 3 gusting 5 2.8
2020-Jan-28 10:51 135 3 gusting 9 2.8
2020-Jan-28 10:41 090 2 gusting 4 2.8
2020-Jan-28 10:31 090 1 gusting 4 2.8
2020-Jan-28 10:21 113 0 gusting 1 2.8
2020-Jan-28 10:11 113 4 gusting 6 2.8
2020-Jan-28 10:01 090 1 gusting 2 2.8
2020-Jan-28 09:51 113 3 gusting 6 2.8
2020-Jan-28 09:41 090 0 gusting 2 2.8
2020-Jan-28 09:31 135 0 gusting 1 2.8
2020-Jan-28 09:21 113 1 gusting 3 2.8
2020-Jan-28 09:11 113 0 gusting 2 2.8
2020-Jan-28 09:01 090 0 gusting 1 2.8
2020-Jan-28 08:51 2.8
2020-Jan-28 08:41 090 0 gusting 2 2.8
2020-Jan-28 08:31 113 0 gusting 2 3.3
2020-Jan-28 08:21 113 1 gusting 2 3.3
2020-Jan-28 08:11 113 2 gusting 6 3.3
2020-Jan-28 08:01 113 1 gusting 3 3.3
2020-Jan-28 07:51 113 0 gusting 3 3.3
2020-Jan-28 07:41 113 1 gusting 1 3.3
2020-Jan-28 07:31 113 0 gusting 2 3.3
2020-Jan-28 07:21 113 0 gusting 1 3.3
2020-Jan-28 07:11 135 0 gusting 3 3.3
2020-Jan-28 07:01 135 1 gusting 2 3.3
2020-Jan-28 06:51 3.9
2020-Jan-28 06:41 113 1 gusting 5 3.9
2020-Jan-28 06:31 135 4 gusting 6 3.9
2020-Jan-28 06:21 3.9
2020-Jan-28 06:11 158 1 gusting 3 3.9
2020-Jan-28 06:01 180 0 gusting 0 3.9
2020-Jan-28 05:51 135 2 gusting 5 3.9
2020-Jan-28 05:41 135 0 gusting 1 3.9
2020-Jan-28 05:31 180 1 gusting 3 3.9
2020-Jan-28 05:21 158 1 gusting 4 3.9
2020-Jan-28 05:11 135 1 gusting 3 3.9
2020-Jan-28 05:01 158 2 gusting 5 3.9
2020-Jan-28 04:51 180 1 gusting 2 3.9
2020-Jan-28 04:41 4.4
2020-Jan-28 04:31 158 0 gusting 2 4.4
2020-Jan-28 04:21 4.4
2020-Jan-28 04:11 4.4
2020-Jan-28 04:01 158 2 gusting 5 4.4
2020-Jan-28 03:51 113 2 gusting 4 5.0
2020-Jan-28 03:41 135 0 gusting 1 5.0
2020-Jan-28 03:31 113 1 gusting 3 5.0
2020-Jan-28 03:21 135 0 gusting 2 5.0
2020-Jan-28 03:11 135 2 gusting 3 5.0
2020-Jan-28 03:01 5.0
2020-Jan-28 02:51 113 0 gusting 0 5.0
2020-Jan-28 02:41 135 0 gusting 2 5.0
2020-Jan-28 02:31 5.0
2020-Jan-28 02:21 5.0
2020-Jan-28 02:11 5.0
2020-Jan-28 02:01 5.0
2020-Jan-28 01:51 5.0
2020-Jan-28 01:41 5.0
2020-Jan-28 01:31 5.6
2020-Jan-28 01:21 090 0 gusting 2 5.6
2020-Jan-28 01:11 090 0 gusting 2 5.6
2020-Jan-28 01:01 5.6
2020-Jan-28 00:51 113 1 gusting 3 5.6
2020-Jan-28 00:41 113 1 gusting 2 5.6
2020-Jan-28 00:31 090 1 gusting 2 5.6
2020-Jan-28 00:21 113 0 gusting 1 5.6
2020-Jan-28 00:11 113 0 gusting 1 5.6
2020-Jan-28 00:01 090 0 gusting 2 5.6
2020-Jan-27 23:51 5.6
2020-Jan-27 23:41 113 0 gusting 1 6.1
2020-Jan-27 23:31 6.1
2020-Jan-27 23:21 113 0 gusting 1 6.1
2020-Jan-27 23:11 090 0 gusting 1 6.1
2020-Jan-27 23:01 090 1 gusting 4 6.1
2020-Jan-27 22:51 090 3 gusting 6 6.1
2020-Jan-27 22:41 090 0 gusting 2 6.1
2020-Jan-27 22:31 090 0 gusting 3 6.1
2020-Jan-27 22:21 113 2 gusting 4 6.7
2020-Jan-27 22:11 135 1 gusting 2 6.7
2020-Jan-27 22:01 113 0 gusting 2 6.7
2020-Jan-27 21:51 6.7
2020-Jan-27 21:41 113 2 gusting 3 6.7
2020-Jan-27 21:31 6.7
2020-Jan-27 21:21 135 1 gusting 3 6.7
2020-Jan-27 21:11 113 1 gusting 4 6.7
2020-Jan-27 21:01 135 1 gusting 3 6.7
2020-Jan-27 20:51 113 4 gusting 9 6.7
2020-Jan-27 20:41 090 6 gusting 11 7.2
2020-Jan-27 20:31 113 0 gusting 2 7.8
2020-Jan-27 20:21 090 3 gusting 6 7.2
2020-Jan-27 20:11 113 3 gusting 5 7.2
2020-Jan-27 20:01 158 2 gusting 5 7.8
2020-Jan-27 19:51 135 3 gusting 5 7.8
2020-Jan-27 19:41 135 5 gusting 9 7.2
2020-Jan-27 19:31 135 1 gusting 3 7.2
2020-Jan-27 19:21 113 0 gusting 2 6.7
2020-Jan-27 19:11 113 2 gusting 3 6.1
2020-Jan-27 19:01 113 0 gusting 2 6.1
2020-Jan-27 18:51 090 2 gusting 4 6.1
2020-Jan-27 18:41 090 2 gusting 4 6.1
2020-Jan-27 18:31 090 1 gusting 3 6.1
2020-Jan-27 18:21 090 0 gusting 2 6.1
2020-Jan-27 18:11 113 2 gusting 4 6.1
2020-Jan-27 18:01 113 1 gusting 2 6.1
2020-Jan-27 17:51 068 2 gusting 3 6.1
2020-Jan-27 17:41 068 0 gusting 3 6.1
2020-Jan-27 17:31 090 2 gusting 4 5.6
2020-Jan-27 17:21 090 0 gusting 2 5.6
2020-Jan-27 17:11 113 3 gusting 6 5.6
2020-Jan-27 17:01 090 0 gusting 1 5.0
2020-Jan-27 16:51 068 1 gusting 3 5.0
2020-Jan-27 16:41 090 3 gusting 4 5.0
2020-Jan-27 16:31 090 3 gusting 5 5.0
2020-Jan-27 16:21 068 2 gusting 4 5.0
2020-Jan-27 16:11 090 3 gusting 6 5.6
2020-Jan-27 16:01 090 0 gusting 2 5.6
2020-Jan-27 15:51 068 5 gusting 8 5.0
2020-Jan-27 15:41 068 4 gusting 6 5.0
2020-Jan-27 15:31 090 3 gusting 8 5.0
2020-Jan-27 15:21 090 3 gusting 5 5.0
2020-Jan-27 15:11 113 0 gusting 1 4.4
2020-Jan-27 15:01 090 1 gusting 3 4.4
2020-Jan-27 14:51 090 0 gusting 2 4.4
2020-Jan-27 14:41 113 2 gusting 4 3.9
2020-Jan-27 14:31 3.9
2020-Jan-27 14:21 068 0 gusting 3 3.3
2020-Jan-27 14:11 068 0 gusting 4 3.3
2020-Jan-27 14:01 045 1 gusting 2 2.8
2020-Jan-27 13:51 2.8
2020-Jan-27 13:41 068 0 gusting 2 2.8
2020-Jan-27 13:31 2.8
2020-Jan-27 13:21 2.2
2020-Jan-27 13:11 2.2
2020-Jan-27 13:01 2.2
2020-Jan-27 12:51 2.2
2020-Jan-27 12:41 2.2
2020-Jan-27 12:31 068 0 gusting 1 2.2
2020-Jan-27 12:21 2.2
2020-Jan-27 12:11 045 2 gusting 5 2.2
2020-Jan-27 12:01 045 0 gusting 2 1.7
2020-Jan-27 11:51 1.7
2020-Jan-27 11:41 2.2
2020-Jan-27 11:31 2.2
2020-Jan-27 11:21 113 0 gusting 0 1.7
2020-Jan-27 11:11 1.7
2020-Jan-27 11:01 1.7
2020-Jan-27 10:51 045 1 gusting 4 1.7
2020-Jan-27 10:41 2.2
2020-Jan-27 10:31 2.2
2020-Jan-27 10:21 045 1 gusting 3 2.2
2020-Jan-27 10:11 113 0 gusting 2 2.2
2020-Jan-27 10:01 090 0 gusting 2 1.7
2020-Jan-27 09:51 1.7
2020-Jan-27 09:41 1.7
2020-Jan-27 09:31 1.7
2020-Jan-27 09:21 068 1 gusting 2 1.7
2020-Jan-27 09:11 1.7
2020-Jan-27 09:01 1.7
2020-Jan-27 08:51 1.7
2020-Jan-27 08:41 1.7
2020-Jan-27 08:31 1.7
2020-Jan-27 08:21 1.7
2020-Jan-27 08:11 023 0 gusting 4 1.7
2020-Jan-27 08:01 090 1 gusting 5 1.7
2020-Jan-27 07:51 1.7
2020-Jan-27 07:41 1.1
2020-Jan-27 07:31 1.7
2020-Jan-27 07:21 1.1
2020-Jan-27 07:11 1.1
2020-Jan-27 07:01 1.1
2020-Jan-27 06:51 1.1
2020-Jan-27 06:41 0.6
2020-Jan-27 06:31 0.6
2020-Jan-27 06:21 0.6
2020-Jan-27 06:11 0.6
2020-Jan-27 06:01 0.6
2020-Jan-27 05:51 -0.0
2020-Jan-27 05:41 -0.0
2020-Jan-27 05:31 -0.0
2020-Jan-27 05:21 0.6
2020-Jan-27 05:11 0.6
2020-Jan-27 05:01 1.1
2020-Jan-27 04:51 1.1
2020-Jan-27 04:41 1.1
2020-Jan-27 04:31 1.1
2020-Jan-27 04:21 1.7
2020-Jan-27 04:11 1.7
2020-Jan-27 04:01 2.2
2020-Jan-27 03:51 2.2
2020-Jan-27 03:41 2.2
2020-Jan-27 03:31 113 2 gusting 6 2.2
2020-Jan-27 03:21 2.2
2020-Jan-27 03:11 2.2
2020-Jan-27 03:01 2.2
2020-Jan-27 02:51 2.2
2020-Jan-27 02:41 2.2
2020-Jan-27 02:31 2.8
2020-Jan-27 02:21 2.8
2020-Jan-27 02:11 2.8
2020-Jan-27 02:01 2.8
2020-Jan-27 01:51 2.8
2020-Jan-27 01:41 3.3
2020-Jan-27 01:31 3.3
2020-Jan-27 01:21 090 0 gusting 1 3.9
2020-Jan-27 01:11 090 0 gusting 1 3.9
2020-Jan-27 01:01 068 0 gusting 0 3.9
2020-Jan-27 00:51 068 0 gusting 1 3.9
2020-Jan-27 00:41 090 0 gusting 2 4.4
2020-Jan-27 00:31 4.4
2020-Jan-27 00:21 113 2 gusting 4 4.4
2020-Jan-27 00:11 113 0 gusting 1 4.4
2020-Jan-27 00:01 090 3 gusting 6 5.0
2020-Jan-26 23:51 090 2 gusting 4 5.0
2020-Jan-26 23:41 113 0 gusting 2 5.0
2020-Jan-26 23:31 090 1 gusting 3 5.0
2020-Jan-26 23:21 5.6
2020-Jan-26 23:11 5.6
2020-Jan-26 23:01 090 0 gusting 3 6.1